createdAt,value
2022-08-30T00:00:10.436Z,15.41
2022-08-30T00:01:14.182Z,15.34
2022-08-30T00:02:10.462Z,15.28
2022-08-30T00:03:10.688Z,15.19
2022-08-30T00:04:10.390Z,15.12
2022-08-30T00:05:10.372Z,15.05
2022-08-30T00:06:10.359Z,15.00
2022-08-30T00:07:10.350Z,14.95
2022-08-30T00:08:10.331Z,14.90
2022-08-30T00:09:10.372Z,14.85
2022-08-30T00:10:10.302Z,14.78
2022-08-30T00:11:10.295Z,14.71
2022-08-30T00:12:10.293Z,14.61
2022-08-30T00:13:10.271Z,14.57
2022-08-30T00:14:10.252Z,14.52
2022-08-30T00:15:10.362Z,14.49
2022-08-30T00:16:10.307Z,14.46
2022-08-30T00:17:10.213Z,14.42
2022-08-30T00:18:10.215Z,14.38
2022-08-30T00:19:10.214Z,14.39
2022-08-30T00:20:10.184Z,14.42
2022-08-30T00:21:10.197Z,14.41
2022-08-30T00:22:10.157Z,14.36
2022-08-30T00:23:10.135Z,14.34
2022-08-30T00:24:10.144Z,14.35
2022-08-30T00:25:10.117Z,14.34
2022-08-30T00:26:10.105Z,14.38
2022-08-30T00:27:10.120Z,14.39
2022-08-30T00:28:10.086Z,14.45
2022-08-30T00:29:10.081Z,14.60
2022-08-30T00:30:10.057Z,14.69
2022-08-30T00:31:10.103Z,14.69
2022-08-30T00:32:10.032Z,14.69
2022-08-30T00:33:10.052Z,14.71
2022-08-30T00:34:10.026Z,14.75
2022-08-30T00:35:09.989Z,14.78
2022-08-30T00:36:09.978Z,14.75
2022-08-30T00:37:09.987Z,14.71
2022-08-30T00:38:09.952Z,14.67
2022-08-30T00:39:09.972Z,14.64
2022-08-30T00:40:09.977Z,14.63
2022-08-30T00:41:09.920Z,14.63
2022-08-30T00:42:09.901Z,14.61
2022-08-30T00:43:09.939Z,14.61
2022-08-30T00:44:09.872Z,14.71
2022-08-30T00:45:09.928Z,14.71
2022-08-30T00:46:09.901Z,14.71
2022-08-30T00:47:09.836Z,14.64
2022-08-30T00:48:09.824Z,14.61
2022-08-30T00:49:09.818Z,14.56
2022-08-30T00:50:09.805Z,14.49
2022-08-30T00:51:09.814Z,14.66
2022-08-30T00:52:09.774Z,14.66
2022-08-30T00:53:09.826Z,14.61
2022-08-30T00:54:09.747Z,14.57
2022-08-30T00:55:09.737Z,14.53
2022-08-30T00:56:09.717Z,14.52
2022-08-30T00:57:09.745Z,14.53
2022-08-30T00:58:09.711Z,14.48
2022-08-30T00:59:09.688Z,14.44
2022-08-30T01:00:09.668Z,14.39
2022-08-30T01:01:09.737Z,14.38
2022-08-30T01:02:09.684Z,14.34
2022-08-30T01:03:09.787Z,14.29
2022-08-30T01:04:09.621Z,14.27
2022-08-30T01:05:09.609Z,14.24
2022-08-30T01:06:09.589Z,14.23
2022-08-30T01:07:09.581Z,14.20
2022-08-30T01:08:09.596Z,14.16
2022-08-30T01:09:09.583Z,14.21
2022-08-30T01:10:09.552Z,14.23
2022-08-30T01:11:09.533Z,14.24
2022-08-30T01:12:09.522Z,14.31
2022-08-30T01:13:09.522Z,14.42
2022-08-30T01:14:09.493Z,14.46
2022-08-30T01:15:09.513Z,14.48
2022-08-30T01:16:09.549Z,14.45
2022-08-30T01:17:09.462Z,14.45
2022-08-30T01:18:09.444Z,14.41
2022-08-30T01:19:09.444Z,14.38
2022-08-30T01:20:09.415Z,14.42
2022-08-30T01:21:09.425Z,14.46
2022-08-30T01:22:09.395Z,14.44
2022-08-30T01:23:09.491Z,14.56
2022-08-30T01:24:09.369Z,14.63
2022-08-30T01:25:09.364Z,14.64
2022-08-30T01:26:09.338Z,14.66
2022-08-30T01:27:09.453Z,14.72
2022-08-30T01:28:09.318Z,14.72
2022-08-30T01:29:09.308Z,14.74
2022-08-30T01:30:09.289Z,14.78
2022-08-30T01:31:09.341Z,14.83
2022-08-30T01:32:09.290Z,14.87
2022-08-30T01:33:09.417Z,14.85
2022-08-30T01:34:09.249Z,14.83
2022-08-30T01:35:09.229Z,14.82
2022-08-30T01:36:09.221Z,14.87
2022-08-30T01:37:09.209Z,14.90
2022-08-30T01:38:09.190Z,14.86
2022-08-30T01:39:09.210Z,14.82
2022-08-30T01:40:09.236Z,14.79
2022-08-30T01:41:09.155Z,14.78
2022-08-30T01:42:09.133Z,14.66
2022-08-30T01:43:09.139Z,14.60
2022-08-30T01:44:09.122Z,14.52
2022-08-30T01:45:09.124Z,14.45
2022-08-30T01:46:09.137Z,14.36
2022-08-30T01:47:09.074Z,14.29
2022-08-30T01:48:09.063Z,14.19
2022-08-30T01:49:09.064Z,14.09
2022-08-30T01:50:09.043Z,14.06
2022-08-30T01:51:09.066Z,14.04
2022-08-30T01:52:09.015Z,14.01
2022-08-30T01:53:09.100Z,13.96
2022-08-30T01:54:08.985Z,13.94
2022-08-30T01:55:08.976Z,14.01
2022-08-30T01:56:08.966Z,14.08
2022-08-30T01:57:08.978Z,14.06
2022-08-30T01:58:08.937Z,14.01
2022-08-30T01:59:08.928Z,13.94
2022-08-30T02:00:08.909Z,13.91
2022-08-30T02:01:08.924Z,13.91
2022-08-30T02:02:08.887Z,13.90
2022-08-30T02:03:08.929Z,13.91
2022-08-30T02:04:08.986Z,13.87
2022-08-30T02:05:08.858Z,13.81
2022-08-30T02:06:08.838Z,13.76
2022-08-30T02:07:08.829Z,13.73
2022-08-30T02:08:08.810Z,13.75
2022-08-30T02:09:08.847Z,13.80
2022-08-30T02:10:08.781Z,13.79
2022-08-30T02:11:08.772Z,13.75
2022-08-30T02:12:08.753Z,13.71
2022-08-30T02:13:08.773Z,13.68
2022-08-30T02:14:08.732Z,13.65
2022-08-30T02:15:08.743Z,13.61
2022-08-30T02:16:08.716Z,13.57
2022-08-30T02:17:08.723Z,13.55
2022-08-30T02:18:08.683Z,13.53
2022-08-30T02:19:08.673Z,13.48
2022-08-30T02:20:08.667Z,13.44
2022-08-30T02:21:08.682Z,13.36
2022-08-30T02:22:08.635Z,13.31
2022-08-30T02:23:08.615Z,13.28
2022-08-30T02:24:08.605Z,13.25
2022-08-30T02:25:11.238Z,13.24
2022-08-30T02:26:09.626Z,13.19
2022-08-30T02:27:08.572Z,13.19
2022-08-30T02:28:08.558Z,13.22
2022-08-30T02:29:08.547Z,13.19
2022-08-30T02:30:08.548Z,13.14
2022-08-30T02:31:08.572Z,13.07
2022-08-30T02:32:08.521Z,13.03
2022-08-30T02:33:08.491Z,12.98
2022-08-30T02:34:08.490Z,12.96
2022-08-30T02:35:08.484Z,12.96
2022-08-30T02:36:08.460Z,12.95
2022-08-30T02:37:08.451Z,12.95
2022-08-30T02:38:08.461Z,12.96
2022-08-30T02:39:08.436Z,12.96
2022-08-30T02:40:08.488Z,12.94
2022-08-30T02:41:08.412Z,12.96
2022-08-30T02:42:08.383Z,12.99
2022-08-30T02:43:08.374Z,13.03
2022-08-30T02:44:08.473Z,13.01
2022-08-30T02:45:08.342Z,12.99
2022-08-30T02:46:08.417Z,13.01
2022-08-30T02:47:08.320Z,13.01
2022-08-30T02:48:08.303Z,12.99
2022-08-30T02:49:30.251Z,12.98
2022-08-30T02:50:09.314Z,12.95
2022-08-30T02:51:09.299Z,12.95
2022-08-30T02:52:08.254Z,12.92
2022-08-30T02:53:08.244Z,12.98
2022-08-30T02:54:08.226Z,13.09
2022-08-30T02:55:08.217Z,13.19
2022-08-30T02:56:08.247Z,13.35
2022-08-30T02:57:08.197Z,13.46
2022-08-30T02:58:09.186Z,13.55
2022-08-30T02:59:08.168Z,13.59
2022-08-30T03:00:08.156Z,13.63
2022-08-30T03:01:08.195Z,13.62
2022-08-30T03:02:08.157Z,13.65
2022-08-30T03:03:08.127Z,13.65
2022-08-30T03:04:08.110Z,13.63
2022-08-30T03:05:08.088Z,13.63
2022-08-30T03:06:08.069Z,13.63
2022-08-30T03:07:08.074Z,13.69
2022-08-30T03:08:08.072Z,13.73
2022-08-30T03:09:08.050Z,13.80
2022-08-30T03:10:08.020Z,13.83
2022-08-30T03:11:08.010Z,13.84
2022-08-30T03:12:08.007Z,13.86
2022-08-30T03:13:07.991Z,13.83
2022-08-30T03:14:07.997Z,13.79
2022-08-30T03:15:07.963Z,13.72
2022-08-30T03:16:07.965Z,13.63
2022-08-30T03:17:11.234Z,13.55
2022-08-30T03:18:08.928Z,13.53
2022-08-30T03:19:07.916Z,13.55
2022-08-30T03:20:07.921Z,13.53
2022-08-30T03:21:07.894Z,13.44
2022-08-30T03:22:07.883Z,13.39
2022-08-30T03:23:07.879Z,13.29
2022-08-30T03:24:07.845Z,13.27
2022-08-30T03:25:07.844Z,13.27
2022-08-30T03:26:07.858Z,13.27
2022-08-30T03:27:07.814Z,13.28
2022-08-30T03:28:07.796Z,13.24
2022-08-30T03:29:07.813Z,13.28
2022-08-30T03:30:07.776Z,13.31
2022-08-30T03:31:07.773Z,13.36
2022-08-30T03:32:07.837Z,13.43
2022-08-30T03:33:07.737Z,13.44
2022-08-30T03:34:07.728Z,13.43
2022-08-30T03:35:07.744Z,13.39
2022-08-30T03:36:07.730Z,13.41
2022-08-30T03:37:07.704Z,13.41
2022-08-30T03:38:07.701Z,13.44
2022-08-30T03:39:07.660Z,13.44
2022-08-30T03:40:07.716Z,13.50
2022-08-30T03:41:07.639Z,13.50
2022-08-30T03:42:07.621Z,13.48
2022-08-30T03:43:07.610Z,13.54
2022-08-30T03:44:07.645Z,13.57
2022-08-30T03:45:07.583Z,13.61
2022-08-30T03:46:07.634Z,13.62
2022-08-30T03:47:07.560Z,13.62
2022-08-30T03:48:07.552Z,13.59
2022-08-30T03:49:07.534Z,13.57
2022-08-30T03:50:07.543Z,13.53
2022-08-30T03:51:07.524Z,13.53
2022-08-30T03:52:07.493Z,13.53
2022-08-30T03:53:07.484Z,13.53
2022-08-30T03:54:07.485Z,13.53
2022-08-30T03:55:07.459Z,13.54
2022-08-30T03:56:07.575Z,13.55
2022-08-30T03:57:07.447Z,13.53
2022-08-30T03:58:07.416Z,13.57
2022-08-30T03:59:07.407Z,13.55
2022-08-30T04:00:07.406Z,13.57
2022-08-30T04:01:07.432Z,13.63
2022-08-30T04:02:07.424Z,13.66
2022-08-30T04:03:07.358Z,13.68
2022-08-30T04:04:07.350Z,13.66
2022-08-30T04:05:07.328Z,13.68
2022-08-30T04:06:07.316Z,13.63
2022-08-30T04:07:07.317Z,13.62
2022-08-30T04:08:07.316Z,13.61
2022-08-30T04:09:07.281Z,13.59
2022-08-30T04:10:07.272Z,13.57
2022-08-30T04:11:07.250Z,13.51
2022-08-30T04:12:07.241Z,13.51
2022-08-30T04:13:07.232Z,13.50
2022-08-30T04:14:07.262Z,13.47
2022-08-30T04:15:07.222Z,13.50
2022-08-30T04:16:07.205Z,13.54
2022-08-30T04:17:07.188Z,13.51
2022-08-30T04:18:07.162Z,13.51
2022-08-30T04:19:07.362Z,13.48
2022-08-30T04:20:07.162Z,13.47
2022-08-30T04:21:08.802Z,13.47
2022-08-30T04:22:07.113Z,13.43
2022-08-30T04:23:07.108Z,13.39
2022-08-30T04:24:07.096Z,13.38
2022-08-30T04:25:07.089Z,13.38
2022-08-30T04:26:07.084Z,13.36
2022-08-30T04:27:07.062Z,13.39
2022-08-30T04:28:07.035Z,13.39
2022-08-30T04:29:07.025Z,13.38
2022-08-30T04:30:07.009Z,13.44
2022-08-30T04:31:06.997Z,13.47
2022-08-30T04:32:08.109Z,13.46
2022-08-30T04:33:06.988Z,13.47
2022-08-30T04:34:06.958Z,13.51
2022-08-30T04:35:06.956Z,13.54
2022-08-30T04:36:06.928Z,13.54
2022-08-30T04:37:06.927Z,13.53
2022-08-30T04:38:06.938Z,13.51
2022-08-30T04:39:06.900Z,13.47
2022-08-30T04:40:06.916Z,13.44
2022-08-30T04:41:06.882Z,13.43
2022-08-30T04:42:06.874Z,13.39
2022-08-30T04:43:06.849Z,13.36
2022-08-30T04:44:06.869Z,13.35
2022-08-30T04:45:06.829Z,13.32
2022-08-30T04:46:06.918Z,13.31
2022-08-30T04:47:06.807Z,13.31
2022-08-30T04:48:06.782Z,13.32
2022-08-30T04:49:06.773Z,13.29
2022-08-30T04:50:06.780Z,13.31
2022-08-30T04:51:06.742Z,13.29
2022-08-30T04:52:06.734Z,13.27
2022-08-30T04:53:06.724Z,13.28
2022-08-30T04:54:06.723Z,13.28
2022-08-30T04:55:06.697Z,13.29
2022-08-30T04:56:06.719Z,13.27
2022-08-30T04:57:06.674Z,13.24
2022-08-30T04:58:06.667Z,13.27
2022-08-30T04:59:06.644Z,13.29
2022-08-30T05:00:06.640Z,13.32
2022-08-30T05:01:06.668Z,13.32
2022-08-30T05:02:06.775Z,13.35
2022-08-30T05:03:06.586Z,13.36
2022-08-30T05:04:06.578Z,13.31
2022-08-30T05:05:06.580Z,13.36
2022-08-30T05:06:06.557Z,13.36
2022-08-30T05:07:06.547Z,13.39
2022-08-30T05:08:06.558Z,13.38
2022-08-30T05:09:06.518Z,13.36
2022-08-30T05:10:10.949Z,13.36
2022-08-30T05:11:06.489Z,13.35
2022-08-30T05:12:06.479Z,13.38
2022-08-30T05:13:06.533Z,13.39
2022-08-30T05:14:06.483Z,13.41
2022-08-30T05:15:06.448Z,13.41
2022-08-30T05:16:06.506Z,13.41
2022-08-30T05:17:06.411Z,13.46
2022-08-30T05:18:06.404Z,13.47
2022-08-30T05:19:06.393Z,13.48
2022-08-30T05:20:06.412Z,13.54
2022-08-30T05:21:06.362Z,13.54
2022-08-30T05:22:06.377Z,13.55
2022-08-30T05:23:06.342Z,13.59
2022-08-30T05:24:06.323Z,13.62
2022-08-30T05:25:06.326Z,13.68
2022-08-30T05:26:06.342Z,13.68
2022-08-30T05:27:06.303Z,13.69
2022-08-30T05:28:06.276Z,13.69
2022-08-30T05:29:06.264Z,13.71
2022-08-30T05:30:06.326Z,13.71
2022-08-30T05:31:06.251Z,13.71
2022-08-30T05:32:07.255Z,13.72
2022-08-30T05:33:06.220Z,13.72
2022-08-30T05:34:06.202Z,13.73
2022-08-30T05:35:06.189Z,13.75
2022-08-30T05:36:06.197Z,13.80
2022-08-30T05:37:06.158Z,13.81
2022-08-30T05:38:06.197Z,13.84
2022-08-30T05:39:06.138Z,13.87
2022-08-30T05:40:07.472Z,13.87
2022-08-30T05:41:08.496Z,13.91
2022-08-30T05:42:06.099Z,13.93
2022-08-30T05:43:06.099Z,13.96
2022-08-30T05:44:06.101Z,13.99
2022-08-30T05:45:06.063Z,14.01
2022-08-30T05:46:06.060Z,14.04
2022-08-30T05:47:06.057Z,14.05
2022-08-30T05:48:06.045Z,14.05
2022-08-30T05:49:06.036Z,14.08
2022-08-30T05:50:06.133Z,14.12
2022-08-30T05:51:05.984Z,14.19
2022-08-30T05:52:05.981Z,14.20
2022-08-30T05:53:05.963Z,14.24
2022-08-30T05:54:05.983Z,14.30
2022-08-30T05:55:05.932Z,14.29
2022-08-30T05:56:05.986Z,14.31
2022-08-30T05:57:05.936Z,14.35
2022-08-30T05:58:05.915Z,14.36
2022-08-30T05:59:05.937Z,14.41
2022-08-30T06:00:05.956Z,14.42
2022-08-30T06:01:05.865Z,14.46
2022-08-30T06:02:05.947Z,14.49
2022-08-30T06:03:05.899Z,14.52
2022-08-30T06:04:05.830Z,14.57
2022-08-30T06:05:05.831Z,14.63
2022-08-30T06:06:08.265Z,14.67
2022-08-30T06:07:05.807Z,14.78
2022-08-30T06:08:05.822Z,14.85
2022-08-30T06:09:05.954Z,14.90
2022-08-30T06:10:05.766Z,14.95
2022-08-30T06:11:05.747Z,14.97
2022-08-30T06:12:05.752Z,14.98
2022-08-30T06:13:05.708Z,15.03
2022-08-30T06:14:05.731Z,15.04
2022-08-30T06:15:05.691Z,15.11
2022-08-30T06:16:05.716Z,15.13
2022-08-30T06:17:05.701Z,15.19
2022-08-30T06:18:05.660Z,15.23
2022-08-30T06:19:07.597Z,15.27
2022-08-30T06:20:05.741Z,15.31
2022-08-30T06:21:11.112Z,15.35
2022-08-30T06:22:06.636Z,15.41
2022-08-30T06:23:05.597Z,15.48
2022-08-30T06:24:05.843Z,15.56
2022-08-30T06:25:07.517Z,15.58
2022-08-30T06:26:06.364Z,15.60
2022-08-30T06:27:06.373Z,15.62
2022-08-30T06:28:06.324Z,15.67
2022-08-30T06:29:05.532Z,15.73
2022-08-30T06:30:05.518Z,15.80
2022-08-30T06:31:05.636Z,15.88
2022-08-30T06:32:06.007Z,15.95
2022-08-30T06:33:06.246Z,16.01
2022-08-30T06:34:06.267Z,16.01
2022-08-30T06:35:06.228Z,16.04
2022-08-30T06:36:06.263Z,16.07
2022-08-30T06:37:06.198Z,16.14
2022-08-30T06:38:06.228Z,16.17
2022-08-30T06:39:05.405Z,16.18
2022-08-30T06:40:05.638Z,16.30
2022-08-30T06:41:05.358Z,16.40
2022-08-30T06:42:05.391Z,16.47
2022-08-30T06:43:05.711Z,16.51
2022-08-30T06:44:05.403Z,16.54
2022-08-30T06:45:10.325Z,16.59
2022-08-30T06:46:06.144Z,16.59
2022-08-30T06:47:06.076Z,16.62
2022-08-30T06:48:06.073Z,16.66
2022-08-30T06:49:05.275Z,16.70
2022-08-30T06:50:07.753Z,16.72
2022-08-30T06:51:06.373Z,16.82
2022-08-30T06:52:05.982Z,16.84
2022-08-30T06:53:05.311Z,16.81
2022-08-30T06:54:05.225Z,16.82
2022-08-30T06:55:05.737Z,16.84
2022-08-30T06:56:06.572Z,16.90
2022-08-30T06:57:05.955Z,16.98
2022-08-30T06:58:05.171Z,16.99
2022-08-30T06:59:05.135Z,16.98
2022-08-30T07:00:05.132Z,16.92
2022-08-30T07:01:05.905Z,16.99
2022-08-30T07:02:06.074Z,16.98
2022-08-30T07:03:05.943Z,16.95
2022-08-30T07:04:06.113Z,16.96
2022-08-30T07:05:05.871Z,17.06
2022-08-30T07:06:05.849Z,16.99
2022-08-30T07:07:05.839Z,16.99
2022-08-30T07:08:05.865Z,17.05
2022-08-30T07:09:05.910Z,17.10
2022-08-30T07:10:05.052Z,17.15
2022-08-30T07:11:04.992Z,17.14
2022-08-30T07:12:08.189Z,17.20
2022-08-30T07:13:05.406Z,17.27
2022-08-30T07:14:05.313Z,17.36
2022-08-30T07:15:06.273Z,17.35
2022-08-30T07:16:07.781Z,17.42
2022-08-30T07:17:04.997Z,17.46
2022-08-30T07:18:05.849Z,17.51
2022-08-30T07:19:05.673Z,17.47
2022-08-30T07:20:05.576Z,17.51
2022-08-30T07:21:05.668Z,17.60
2022-08-30T07:22:05.669Z,17.62
2022-08-30T07:23:05.144Z,17.62
2022-08-30T07:24:05.626Z,17.60
2022-08-30T07:25:05.599Z,17.58
2022-08-30T07:26:05.837Z,17.58
2022-08-30T07:27:04.911Z,17.65
2022-08-30T07:28:04.913Z,17.68
2022-08-30T07:29:05.601Z,17.76
2022-08-30T07:30:07.273Z,17.83
2022-08-30T07:31:05.613Z,17.80
2022-08-30T07:32:05.595Z,17.76
2022-08-30T07:33:05.521Z,17.79
2022-08-30T07:34:06.715Z,17.81
2022-08-30T07:35:05.084Z,17.86
2022-08-30T07:36:05.518Z,17.94
2022-08-30T07:37:04.752Z,17.94
2022-08-30T07:38:05.491Z,17.92
2022-08-30T07:39:05.417Z,17.94
2022-08-30T07:40:05.481Z,17.86
2022-08-30T07:41:04.755Z,17.84
2022-08-30T07:42:06.145Z,17.99
2022-08-30T07:43:05.400Z,17.99
2022-08-30T07:44:05.415Z,17.92
2022-08-30T07:45:05.412Z,17.95
2022-08-30T07:46:05.411Z,18.04
2022-08-30T07:47:05.338Z,18.09
2022-08-30T07:48:05.308Z,18.01
2022-08-30T07:49:05.301Z,17.96
2022-08-30T07:50:06.447Z,18.05
2022-08-30T07:51:05.638Z,18.16
2022-08-30T07:52:07.104Z,18.20
2022-08-30T07:53:07.909Z,18.28
2022-08-30T07:54:06.256Z,18.32
2022-08-30T07:55:05.217Z,18.29
2022-08-30T07:56:05.340Z,18.34
2022-08-30T07:57:05.211Z,18.60
2022-08-30T07:58:05.206Z,18.59
2022-08-30T07:59:05.194Z,18.46
2022-08-30T08:00:05.149Z,18.41
2022-08-30T08:01:05.152Z,18.42
2022-08-30T08:02:06.511Z,18.41
2022-08-30T08:03:05.285Z,18.54
2022-08-30T08:04:05.103Z,18.65
2022-08-30T08:05:05.083Z,18.75
2022-08-30T08:06:05.102Z,18.71
2022-08-30T08:07:05.076Z,18.71
2022-08-30T08:08:05.086Z,18.82
2022-08-30T08:09:04.286Z,18.89
2022-08-30T08:10:05.034Z,19.02
2022-08-30T08:11:05.039Z,19.16
2022-08-30T08:12:06.735Z,19.17
2022-08-30T08:13:04.526Z,19.07
2022-08-30T08:14:05.076Z,18.90
2022-08-30T08:15:06.775Z,18.90
2022-08-30T08:16:05.082Z,18.99
2022-08-30T08:17:04.996Z,19.17
2022-08-30T08:18:04.257Z,19.10
2022-08-30T08:19:04.910Z,19.05
2022-08-30T08:20:04.248Z,19.17
2022-08-30T08:21:04.200Z,19.24
2022-08-30T08:22:19.953Z,19.20
2022-08-30T08:23:07.083Z,19.15
2022-08-30T08:24:05.053Z,19.16
2022-08-30T08:25:06.169Z,19.34
2022-08-30T08:26:04.294Z,19.58
2022-08-30T08:27:04.121Z,19.78
2022-08-30T08:28:04.054Z,19.79
2022-08-30T08:29:04.795Z,19.65
2022-08-30T08:30:03.998Z,19.67
2022-08-30T08:31:04.054Z,19.67
2022-08-30T08:32:04.818Z,19.55
2022-08-30T08:33:04.756Z,19.40
2022-08-30T08:34:04.743Z,19.60
2022-08-30T08:35:04.714Z,19.68
2022-08-30T08:36:08.802Z,19.80
2022-08-30T08:37:03.994Z,19.70
2022-08-30T08:38:03.945Z,19.58
2022-08-30T08:39:03.930Z,19.64
2022-08-30T08:40:03.942Z,19.82
2022-08-30T08:41:03.850Z,19.94
2022-08-30T08:42:05.912Z,19.57
2022-08-30T08:43:04.601Z,19.45
2022-08-30T08:44:03.885Z,19.49
2022-08-30T08:45:08.780Z,19.58
2022-08-30T08:46:04.947Z,19.52
2022-08-30T08:47:04.264Z,19.58
2022-08-30T08:48:04.264Z,19.79
2022-08-30T08:49:03.838Z,19.82
2022-08-30T08:50:04.189Z,19.86
2022-08-30T08:51:05.726Z,19.85
2022-08-30T08:52:03.982Z,20.02
2022-08-30T08:53:04.540Z,20.19
2022-08-30T08:54:04.778Z,20.37
2022-08-30T08:55:04.555Z,20.41
2022-08-30T08:56:04.476Z,20.53
2022-08-30T08:57:03.797Z,20.51
2022-08-30T08:58:03.697Z,20.58
2022-08-30T08:59:03.636Z,20.53
2022-08-30T09:00:04.397Z,20.50
2022-08-30T09:01:03.782Z,20.44
2022-08-30T09:02:04.498Z,20.35
2022-08-30T09:03:03.772Z,20.35
2022-08-30T09:04:04.447Z,20.41
2022-08-30T09:05:04.410Z,20.42
2022-08-30T09:06:04.359Z,20.42
2022-08-30T09:07:03.590Z,20.66
2022-08-30T09:08:06.629Z,20.75
2022-08-30T09:09:04.632Z,20.50
2022-08-30T09:10:04.273Z,20.34
2022-08-30T09:11:04.253Z,20.37
2022-08-30T09:12:04.306Z,20.50
2022-08-30T09:13:04.342Z,20.51
2022-08-30T09:14:06.120Z,20.40
2022-08-30T09:15:04.250Z,20.50
2022-08-30T09:16:03.750Z,20.64
2022-08-30T09:17:03.492Z,20.63
2022-08-30T09:18:03.390Z,20.63
2022-08-30T09:19:03.688Z,20.66
2022-08-30T09:20:04.170Z,20.71
2022-08-30T09:21:03.619Z,20.72
2022-08-30T09:22:04.119Z,20.75
2022-08-30T09:23:03.401Z,20.76
2022-08-30T09:24:04.093Z,20.88
2022-08-30T09:25:03.301Z,20.69
2022-08-30T09:26:04.129Z,20.69
2022-08-30T09:27:03.330Z,20.53
2022-08-30T09:28:04.047Z,20.54
2022-08-30T09:29:04.025Z,20.68
2022-08-30T09:30:04.020Z,20.87
2022-08-30T09:31:03.658Z,20.91
2022-08-30T09:32:24.808Z,20.88
2022-08-30T09:33:04.989Z,20.63
2022-08-30T09:34:03.975Z,20.58
2022-08-30T09:35:03.206Z,20.53
2022-08-30T09:36:03.375Z,20.63
2022-08-30T09:37:03.216Z,20.69
2022-08-30T09:38:03.193Z,21.06
2022-08-30T09:39:03.914Z,21.08
2022-08-30T09:40:05.645Z,20.98
2022-08-30T09:41:04.014Z,21.01
2022-08-30T09:42:05.116Z,20.87
2022-08-30T09:43:03.883Z,20.88
2022-08-30T09:44:03.932Z,20.93
2022-08-30T09:45:03.847Z,21.09
2022-08-30T09:46:03.108Z,21.40
2022-08-30T09:47:03.121Z,21.66
2022-08-30T09:48:03.812Z,21.71
2022-08-30T09:49:03.877Z,21.77
2022-08-30T09:50:03.152Z,21.73
2022-08-30T09:51:03.782Z,21.37
2022-08-30T09:52:03.774Z,20.98
2022-08-30T09:53:03.350Z,20.97
2022-08-30T09:54:19.085Z,20.98
2022-08-30T09:55:04.732Z,20.98
2022-08-30T09:56:03.724Z,21.11
2022-08-30T09:57:03.055Z,21.30
2022-08-30T09:58:02.948Z,21.42
2022-08-30T09:59:03.091Z,21.37
2022-08-30T10:00:03.042Z,21.34
2022-08-30T10:01:03.441Z,21.11
2022-08-30T10:02:03.701Z,21.21
2022-08-30T10:03:03.638Z,21.42
2022-08-30T10:04:03.618Z,21.51
2022-08-30T10:05:03.594Z,21.56
2022-08-30T10:06:03.608Z,21.37
2022-08-30T10:07:03.483Z,21.26
2022-08-30T10:08:03.613Z,21.37
2022-08-30T10:09:03.537Z,21.36
2022-08-30T10:10:03.517Z,21.19
2022-08-30T10:11:04.742Z,21.30
2022-08-30T10:12:03.502Z,21.36
2022-08-30T10:13:03.507Z,21.30
2022-08-30T10:14:03.502Z,21.28
2022-08-30T10:15:02.932Z,21.30
2022-08-30T10:16:03.503Z,21.15
2022-08-30T10:17:02.859Z,21.22
2022-08-30T10:18:02.655Z,21.40
2022-08-30T10:19:06.203Z,21.49
2022-08-30T10:20:03.205Z,21.56
2022-08-30T10:21:03.004Z,21.37
2022-08-30T10:22:03.356Z,21.46
2022-08-30T10:23:03.363Z,21.46
2022-08-30T10:24:02.596Z,21.28
2022-08-30T10:25:02.616Z,21.28
2022-08-30T10:26:03.306Z,21.46
2022-08-30T10:27:03.355Z,21.46
2022-08-30T10:28:03.269Z,21.51
2022-08-30T10:29:03.270Z,21.45
2022-08-30T10:30:02.638Z,21.30
2022-08-30T10:31:03.270Z,21.18
2022-08-30T10:34:14.363Z,21.53
2022-08-30T10:35:18.782Z,21.63
2022-08-30T10:36:15.392Z,22.01
2022-08-30T10:37:14.310Z,22.08
2022-08-30T10:38:14.291Z,21.86
2022-08-30T10:39:15.962Z,21.91
2022-08-30T10:40:15.963Z,21.79
2022-08-30T10:41:14.261Z,21.66
2022-08-30T10:42:14.885Z,21.59
2022-08-30T10:43:14.233Z,21.79
2022-08-30T10:44:14.216Z,21.89
2022-08-30T10:45:14.214Z,22.19
2022-08-30T10:46:14.202Z,22.31
2022-08-30T10:47:14.185Z,22.05
2022-08-30T10:48:14.645Z,21.90
2022-08-30T10:49:14.171Z,21.99
2022-08-30T10:50:14.153Z,22.20
2022-08-30T10:51:14.136Z,22.42
2022-08-30T10:52:14.119Z,22.66
2022-08-30T10:53:14.138Z,22.81
2022-08-30T10:54:14.138Z,22.67
2022-08-30T10:55:14.088Z,22.66
2022-08-30T10:56:14.125Z,22.66
2022-08-30T10:57:14.060Z,22.70
2022-08-30T10:58:15.732Z,22.85
2022-08-30T10:59:15.710Z,22.63
2022-08-30T11:00:14.146Z,22.24
2022-08-30T11:01:14.051Z,22.33
2022-08-30T11:02:14.421Z,22.39
2022-08-30T11:03:13.983Z,22.61
2022-08-30T11:04:14.471Z,22.21
2022-08-30T11:05:13.972Z,21.98
2022-08-30T11:06:13.980Z,22.27
2022-08-30T11:07:13.930Z,22.64
2022-08-30T11:08:20.668Z,22.93
2022-08-30T11:09:14.904Z,23.25
2022-08-30T11:10:15.575Z,22.64
2022-08-30T11:11:13.177Z,22.63
2022-08-30T11:12:13.901Z,22.61
2022-08-30T11:13:13.847Z,22.79
2022-08-30T11:14:15.544Z,23.01
2022-08-30T11:15:13.833Z,23.37
2022-08-30T11:16:14.999Z,23.62
2022-08-30T11:17:13.798Z,23.79
2022-08-30T11:18:13.827Z,23.71
2022-08-30T11:19:13.029Z,23.82
2022-08-30T11:20:13.122Z,23.72
2022-08-30T11:21:14.331Z,23.59
2022-08-30T11:22:13.764Z,23.60
2022-08-30T11:23:13.730Z,23.21
2022-08-30T11:24:13.751Z,22.86
2022-08-30T11:25:13.703Z,22.86
2022-08-30T11:26:20.572Z,22.69
2022-08-30T11:27:14.680Z,22.78
2022-08-30T11:28:13.118Z,22.49
2022-08-30T11:29:12.897Z,22.49
2022-08-30T11:30:16.561Z,22.66
2022-08-30T11:31:15.845Z,22.86
2022-08-30T11:32:13.671Z,23.01
2022-08-30T11:33:14.757Z,23.04
2022-08-30T11:34:13.608Z,23.21
2022-08-30T11:35:13.575Z,23.50
2022-08-30T11:36:13.594Z,23.35
2022-08-30T11:37:13.570Z,23.01
2022-08-30T11:38:13.548Z,22.89
2022-08-30T11:39:13.527Z,23.26
2022-08-30T11:40:14.148Z,23.63
2022-08-30T11:41:12.707Z,23.90
2022-08-30T11:42:14.092Z,23.82
2022-08-30T11:43:12.761Z,23.59
2022-08-30T11:44:12.669Z,23.42
2022-08-30T11:45:12.660Z,23.18
2022-08-30T11:46:14.631Z,23.11
2022-08-30T11:47:12.630Z,23.31
2022-08-30T11:48:12.663Z,23.54
2022-08-30T11:49:12.601Z,23.68
2022-08-30T11:50:13.429Z,23.86
2022-08-30T11:51:12.599Z,24.11
2022-08-30T11:52:27.165Z,24.24
2022-08-30T11:53:13.684Z,24.46
2022-08-30T11:54:12.563Z,24.67
2022-08-30T11:55:12.526Z,24.71
2022-08-30T11:56:14.482Z,24.68
2022-08-30T11:57:12.496Z,24.66
2022-08-30T11:58:12.548Z,24.24
2022-08-30T11:59:13.366Z,23.74
2022-08-30T12:00:12.476Z,23.45
2022-08-30T12:01:25.912Z,23.21
2022-08-30T12:02:13.736Z,23.63
2022-08-30T12:03:13.317Z,24.14
2022-08-30T12:04:15.394Z,24.19
2022-08-30T12:05:12.609Z,24.14
2022-08-30T12:06:13.190Z,23.78
2022-08-30T12:07:13.045Z,23.32
2022-08-30T12:08:14.320Z,23.35
2022-08-30T12:09:12.649Z,23.31
2022-08-30T12:10:12.412Z,23.29
2022-08-30T12:11:13.071Z,23.25
2022-08-30T12:12:12.351Z,23.35
2022-08-30T12:13:12.464Z,23.37
2022-08-30T12:14:17.272Z,23.41
2022-08-30T12:15:13.090Z,23.29
2022-08-30T12:16:14.332Z,23.15
2022-08-30T12:17:12.393Z,23.47
2022-08-30T12:18:15.100Z,23.34
2022-08-30T12:19:13.502Z,23.41
2022-08-30T12:20:12.246Z,23.53
2022-08-30T12:21:12.206Z,23.72
2022-08-30T12:22:12.986Z,23.86
2022-08-30T12:23:12.640Z,23.84
2022-08-30T12:24:12.446Z,23.79
2022-08-30T12:25:12.157Z,23.74
2022-08-30T12:26:12.138Z,23.44
2022-08-30T12:27:12.150Z,23.25
2022-08-30T12:28:12.233Z,23.49
2022-08-30T12:29:12.209Z,23.67
2022-08-30T12:30:12.146Z,23.67
2022-08-30T12:31:12.189Z,23.67
2022-08-30T12:32:12.102Z,23.74
2022-08-30T12:33:12.061Z,23.59
2022-08-30T12:34:12.050Z,23.44
2022-08-30T12:35:12.053Z,23.64
2022-08-30T12:36:13.026Z,23.93
2022-08-30T12:37:12.003Z,23.99
2022-08-30T12:38:11.996Z,23.81
2022-08-30T12:39:11.974Z,23.94
2022-08-30T12:40:12.020Z,23.93
2022-08-30T12:41:12.080Z,23.82
2022-08-30T12:42:11.961Z,23.69
2022-08-30T12:43:13.727Z,23.71
2022-08-30T12:44:12.706Z,23.81
2022-08-30T12:45:12.086Z,24.09
2022-08-30T12:46:11.967Z,23.82
2022-08-30T12:47:11.928Z,23.60
2022-08-30T12:48:11.869Z,23.56
2022-08-30T12:49:11.851Z,23.72
2022-08-30T12:50:15.136Z,23.81
2022-08-30T12:51:11.849Z,23.86
2022-08-30T12:52:11.841Z,23.78
2022-08-30T12:53:14.163Z,23.67
2022-08-30T12:54:11.800Z,23.79